createdAt,value
2022-09-15T00:15:04.505Z,20.9
2022-09-15T00:30:04.732Z,20.8
2022-09-15T00:50:06.706Z,20.8
2022-09-15T01:05:03.872Z,20.8
2022-09-15T01:20:04.745Z,20.8
2022-09-15T01:35:05.573Z,20.8
2022-09-15T01:50:06.892Z,20.7
2022-09-15T02:05:02.498Z,20.7
2022-09-15T02:35:02.416Z,20.7
2022-09-15T03:05:02.569Z,20.7
2022-09-15T03:20:05.540Z,20.7
2022-09-15T03:35:03.664Z,20.6
2022-09-15T03:50:04.613Z,20.6
2022-09-15T04:20:02.378Z,20.7
2022-09-15T04:35:05.377Z,20.8
2022-09-15T04:50:04.663Z,21
2022-09-15T05:05:04.390Z,21.3
2022-09-15T05:20:04.683Z,21.6
2022-09-15T05:35:04.563Z,22
2022-09-15T05:50:05.400Z,22.2
2022-09-15T06:05:05.457Z,22.4
2022-09-15T06:25:06.862Z,22.6
2022-09-15T06:40:06.553Z,22.7
2022-09-15T06:55:06.678Z,22.8
2022-09-15T07:10:05.967Z,22.8
2022-09-15T07:25:04.370Z,22.8
2022-09-15T07:40:03.725Z,22.7
2022-09-15T07:55:04.589Z,22.7
2022-09-15T08:25:02.484Z,22.6
2022-09-15T08:55:06.883Z,22.6
2022-09-15T09:10:03.375Z,22.6
2022-09-15T09:45:06.779Z,22.6
2022-09-15T10:00:05.761Z,22.5
2022-09-15T10:15:02.722Z,22.5
2022-09-15T10:30:05.443Z,22.5
2022-09-15T10:45:03.592Z,22.5
2022-09-15T11:05:04.888Z,22.4
2022-09-15T11:20:03.827Z,22.4
2022-09-15T11:35:06.689Z,22.3
2022-09-15T11:50:02.803Z,22.3
2022-09-15T12:20:02.414Z,22.3
2022-09-15T12:35:04.508Z,22.4
2022-09-15T13:05:06.646Z,22.5
2022-09-15T13:20:03.422Z,22.6
2022-09-15T13:35:03.938Z,22.6
2022-09-15T13:50:03.785Z,22.6
2022-09-15T14:10:02.549Z,22.6
2022-09-15T14:25:02.469Z,22.7
2022-09-15T14:40:05.500Z,22.9
2022-09-15T14:55:04.740Z,23.2
2022-09-15T15:10:05.636Z,23.3
2022-09-15T15:25:02.619Z,23.5
2022-09-15T15:40:06.611Z,23.7
2022-09-15T15:55:02.847Z,23.7
2022-09-15T16:10:05.709Z,23.7
2022-09-15T16:25:02.862Z,23.6
2022-09-15T16:40:05.673Z,23.5
2022-09-15T17:10:04.376Z,23.3
2022-09-15T17:25:04.714Z,23.2
2022-09-15T17:40:03.892Z,23.1
2022-09-15T17:55:06.826Z,23
2022-09-15T18:10:02.812Z,22.9
2022-09-15T18:25:04.733Z,22.8
2022-09-15T18:40:05.555Z,22.8
2022-09-15T19:00:03.509Z,22.7
2022-09-15T19:15:05.370Z,22.6
2022-09-15T19:30:02.679Z,22.5
2022-09-15T19:45:02.831Z,22.4
2022-09-15T20:00:04.914Z,22.3
2022-09-15T20:15:02.664Z,22.1
2022-09-15T20:30:03.716Z,22
2022-09-15T20:45:02.562Z,21.8
2022-09-15T21:00:05.590Z,21.7
2022-09-15T21:15:04.881Z,21.6
2022-09-15T21:30:04.504Z,21.5
2022-09-15T21:50:03.626Z,21.4
2022-09-15T22:20:02.458Z,21.2
2022-09-15T22:40:04.400Z,21.2
2022-09-15T23:10:02.466Z,21.1
2022-09-15T23:25:02.464Z,21
2022-09-15T23:45:02.623Z,21
